Terminal Aerodrome Forecast
Issued by NWS

Home | Current Version | Previous Version | Text Only | Print | Product List | Glossary Off
Versions: 1 2 3 4 5 6 7 8 9 10 11 12 13 14 15 16 17 18 19 20 21

000
FTUS43 KICT 251139
TAFHUT
TAF
KHUT 251139Z 2512/2612 15007KT P6SM SCT040 BKN070
     FM251600 18012KT P6SM SCT050
     FM251900 18015G22KT P6SM VCTS BKN050CB
     FM260300 16007KT P6SM BKN015=

USA.gov is the U.S. government's official web portal to all federal, state and local government web resources and services.